Time;durP1;ratioP1;P1;durP2;ratioP2;P2;SDS_P1;SDS_P2;PMS_P1;PMS_P2;Temp;Humidity;BMP_temperature;BMP_pressure;BME280_temperature;BME280_humidity;BME280_pressure;Samples;Min_cycle;Max_cycle;Signal;HPM_P1;HPM_P2
2022/03/10 00:01:49;;;;;;;24.83;15.27;;;;;;;-0.77;72.77;100936.38;5039774;28;20220;-58
2022/03/10 00:04:14;;;;;;;24.87;15.93;;;;;;;-0.90;73.24;100937.13;5073299;28;20245;-59
2022/03/10 00:06:39;;;;;;;25.00;15.93;;;;;;;-1.08;74.13;100928.59;5072206;28;20185;-58
2022/03/10 00:09:05;;;;;;;22.60;14.97;;;;;;;-0.99;74.00;100932.88;5072871;28;20169;-58
2022/03/10 00:11:30;;;;;;;22.97;15.93;;;;;;;-0.98;74.13;100930.34;5062248;28;20304;-57
2022/03/10 00:13:55;;;;;;;22.60;15.93;;;;;;;-0.93;73.62;100932.03;5067711;28;20171;-59
2022/03/10 00:16:21;;;;;;;26.73;16.10;;;;;;;-1.02;73.78;100942.94;5062290;28;20710;-59
2022/03/10 00:18:47;;;;;;;22.73;16.37;;;;;;;-1.01;73.98;100939.56;5072230;28;20199;-59
2022/03/10 00:21:12;;;;;;;24.50;15.43;;;;;;;-1.03;74.05;100952.19;5062399;28;20649;-58
2022/03/10 00:23:38;;;;;;;24.30;15.73;;;;;;;-1.07;74.00;100947.13;5059451;28;20234;-58
2022/03/10 00:26:03;;;;;;;22.47;15.77;;;;;;;-1.08;74.27;100951.34;5069571;28;20240;-57
2022/03/10 00:28:29;;;;;;;24.23;16.03;;;;;;;-1.20;74.66;100952.06;5072573;28;20172;-58
2022/03/10 00:30:54;;;;;;;24.27;16.97;;;;;;;-1.26;75.27;100948.66;5048368;28;20672;-58
2022/03/10 00:33:19;;;;;;;23.57;15.73;;;;;;;-1.42;75.72;100950.22;5081400;28;20176;-60
2022/03/10 00:35:44;;;;;;;24.33;16.23;;;;;;;-1.48;76.25;100945.94;5071785;28;20186;-59
2022/03/10 00:38:10;;;;;;;24.73;15.97;;;;;;;-1.48;76.48;100949.34;5072423;28;20209;-59
2022/03/10 00:40:36;;;;;;;22.97;16.07;;;;;;;-1.40;75.74;100951.06;5059851;28;20732;-59
2022/03/10 00:43:01;;;;;;;23.53;14.20;;;;;;;-1.38;75.12;100951.91;5071735;28;20204;-57
2022/03/10 00:45:26;;;;;;;22.20;15.07;;;;;;;-1.27;75.05;100955.38;5071011;28;20183;-58
2022/03/10 00:47:52;;;;;;;21.73;14.47;;;;;;;-1.31;74.19;100948.63;5072072;28;20292;-58
2022/03/10 00:50:18;;;;;;;21.57;14.23;;;;;;;-1.39;74.47;100950.22;5064166;28;20195;-57
2022/03/10 00:52:46;;;;;;;20.30;14.37;;;;;;;-1.40;75.09;100951.91;5071396;28;20667;-58
2022/03/10 00:55:15;;;;;;;21.53;15.07;;;;;;;-1.39;74.70;100956.13;5071134;28;20182;-59
2022/03/10 00:57:40;;;;;;;21.87;14.07;;;;;;;-1.44;74.81;100951.88;5070067;28;20223;-58
2022/03/10 01:00:07;;;;;;;26.70;15.57;;;;;;;-1.40;74.73;100949.41;5062027;28;20171;-60
2022/03/10 01:02:35;;;;;;;37.10;16.87;;;;;;;-1.46;74.40;100954.38;5072177;28;20308;-57
2022/03/10 01:05:02;;;;;;;19.43;14.50;;;;;;;-1.53;74.69;100945.91;5070917;28;20456;-57
2022/03/10 01:07:28;;;;;;;20.77;15.27;;;;;;;-1.52;74.61;100945.06;5070312;28;20273;-57
2022/03/10 01:09:53;;;;;;;22.70;14.53;;;;;;;-1.61;74.77;100947.53;5072321;28;20497;-58
2022/03/10 01:12:18;;;;;;;19.43;14.03;;;;;;;-1.68;75.18;100944.09;5061176;28;20242;-58
2022/03/10 01:14:44;;;;;;;26.17;14.20;;;;;;;-1.69;75.34;100941.56;5072172;28;21041;-58
2022/03/10 01:17:09;;;;;;;22.07;14.50;;;;;;;-1.68;75.26;100939.03;5072155;28;20184;-58
2022/03/10 01:19:34;;;;;;;23.03;14.50;;;;;;;-1.69;75.49;100942.38;5071636;28;20186;-60
2022/03/10 01:22:00;;;;;;;19.77;14.70;;;;;;;-1.70;75.26;100944.91;5077186;28;20279;-59
2022/03/10 01:24:25;;;;;;;21.07;13.97;;;;;;;-1.69;75.09;100949.13;5072690;28;20186;-58
2022/03/10 01:26:50;;;;;;;24.67;14.90;;;;;;;-1.66;75.31;100949.16;5071943;28;20193;-58
2022/03/10 01:29:16;;;;;;;24.10;14.27;;;;;;;-1.70;75.44;100940.72;5071240;28;20199;-64
2022/03/10 01:31:41;;;;;;;23.60;14.17;;;;;;;-1.73;75.43;100947.41;5074553;28;20423;-58
2022/03/10 01:34:07;;;;;;;22.73;15.10;;;;;;;-1.81;75.86;100948.19;5074816;28;20196;-59
2022/03/10 01:36:32;;;;;;;22.80;15.80;;;;;;;-1.80;76.36;100942.31;5072025;28;20189;-57
2022/03/10 01:38:57;;;;;;;24.33;15.33;;;;;;;-1.78;76.41;100947.34;5071458;28;20291;-58
2022/03/10 01:41:23;;;;;;;22.07;14.80;;;;;;;-1.79;76.31;100950.72;5060773;28;20220;-57
2022/03/10 01:44:00;;;;;;;21.37;15.33;;;;;;;-1.85;76.19;100950.66;5071295;28;20205;-57
2022/03/10 01:46:26;;;;;;;23.50;14.13;;;;;;;-1.81;76.10;100953.22;5072048;28;20181;-57
2022/03/10 01:48:51;;;;;;;23.80;15.87;;;;;;;-1.80;76.00;100952.41;5070677;28;20188;-57
2022/03/10 01:51:17;;;;;;;21.00;14.57;;;;;;;-1.90;76.46;100954.81;5070775;28;20225;-59
2022/03/10 01:53:43;;;;;;;20.40;14.97;;;;;;;-1.95;77.00;100950.56;5070429;28;20216;-57
2022/03/10 01:56:10;;;;;;;23.03;14.83;;;;;;;-1.96;77.08;100953.03;5071311;28;20208;-58
2022/03/10 01:58:37;;;;;;;20.27;14.53;;;;;;;-1.91;77.42;100955.63;5071414;28;20191;-58
2022/03/10 02:01:03;;;;;;;22.33;14.67;;;;;;;-1.93;77.33;100948.06;5063498;28;20882;-58
2022/03/10 02:03:28;;;;;;;21.30;14.90;;;;;;;-1.99;77.55;100956.38;5070178;28;20414;-57
2022/03/10 02:05:54;;;;;;;19.27;14.53;;;;;;;-2.00;77.47;100954.72;5071404;28;20520;-57
2022/03/10 02:11:04;;;;;;;21.77;15.17;;;;;;;-2.01;77.44;100949.63;5060764;28;20604;-57
2022/03/10 02:13:29;;;;;;;21.80;14.80;;;;;;;-2.03;77.73;100951.31;5066888;28;20444;-57
2022/03/10 02:18:38;;;;;;;20.40;15.37;;;;;;;-2.14;78.52;100952.00;5051218;28;20204;-58
2022/03/10 02:21:04;;;;;;;24.20;14.97;;;;;;;-2.03;78.47;100954.66;5049433;28;20979;-57
2022/03/10 02:23:29;;;;;;;20.37;14.73;;;;;;;-2.03;78.13;100956.34;5058669;28;20189;-58
2022/03/10 02:26:01;;;;;;;21.93;14.10;;;;;;;-2.06;77.67;100961.34;5051563;28;20202;-59
2022/03/10 02:28:27;;;;;;;20.60;13.90;;;;;;;-2.09;77.91;100959.63;5049706;28;20210;-58
2022/03/10 02:30:53;;;;;;;20.20;14.30;;;;;;;-2.20;78.61;100961.19;5039780;28;20484;-58
2022/03/10 02:33:19;;;;;;;21.67;14.57;;;;;;;-2.21;79.12;100962.84;5040361;28;20176;-58
2022/03/10 02:35:45;;;;;;;22.70;13.57;;;;;;;-2.27;79.31;100967.81;5051213;28;20405;-57
2022/03/10 02:38:17;;;;;;;19.90;14.53;;;;;;;-2.29;79.42;100964.44;5051241;28;20437;-58
2022/03/10 02:40:47;;;;;;;23.87;15.67;;;;;;;-2.25;79.59;100970.38;5060882;28;20323;-58
2022/03/10 02:43:12;;;;;;;20.93;15.07;;;;;;;-2.24;79.93;100956.97;5059525;28;20430;-57
2022/03/10 02:45:37;;;;;;;22.93;16.07;;;;;;;-2.31;79.97;100954.34;5069649;28;20420;-58
2022/03/10 02:48:03;;;;;;;20.23;14.43;;;;;;;-2.24;79.82;100955.28;5070752;28;20277;-58
2022/03/10 02:50:29;;;;;;;21.10;14.83;;;;;;;-2.27;79.86;100943.47;5060505;28;20237;-58
2022/03/10 02:52:54;;;;;;;20.37;13.83;;;;;;;-2.19;79.71;100947.78;5056655;28;20184;-57
2022/03/10 02:55:20;;;;;;;20.27;14.20;;;;;;;-2.17;79.64;100954.53;5069148;28;20185;-59
2022/03/10 02:57:45;;;;;;;22.60;14.43;;;;;;;-2.17;79.11;100951.13;5070776;28;20259;-58
2022/03/10 03:00:14;;;;;;;25.53;14.37;;;;;;;-2.18;79.17;100952.00;5042104;28;20480;-57
2022/03/10 03:02:39;;;;;;;21.27;15.03;;;;;;;-2.15;79.25;100954.53;5075589;28;20184;-58
2022/03/10 03:05:06;;;;;;;20.87;15.50;;;;;;;-2.20;78.76;100951.13;5070912;28;20750;-57
2022/03/10 03:07:31;;;;;;;22.33;15.20;;;;;;;-2.25;78.76;100956.09;5069035;28;20294;-57
2022/03/10 03:09:57;;;;;;;21.13;14.60;;;;;;;-2.27;79.04;100958.59;5071319;28;20781;-57
2022/03/10 03:12:22;;;;;;;21.13;14.20;;;;;;;-2.21;79.00;100959.50;5077431;28;20677;-57
2022/03/10 03:14:47;;;;;;;21.57;14.33;;;;;;;-2.21;79.26;100960.31;5074475;28;20636;-57
2022/03/10 03:17:13;;;;;;;20.23;14.80;;;;;;;-2.26;78.98;100961.94;5074387;28;20169;-58
2022/03/10 03:19:38;;;;;;;20.40;14.73;;;;;;;-2.21;79.44;100959.50;5073888;28;20613;-58
2022/03/10 03:22:04;;;;;;;24.50;14.17;;;;;;;-2.22;79.29;100975.44;5062996;28;20262;-57
2022/03/10 03:24:29;;;;;;;23.53;15.47;;;;;;;-2.25;79.52;100976.25;5074541;28;20563;-57
2022/03/10 03:26:55;;;;;;;21.63;15.80;;;;;;;-2.26;79.71;100974.56;5074477;28;20231;-59
2022/03/10 03:29:20;;;;;;;20.90;14.00;;;;;;;-2.40;80.05;100978.59;5073373;28;20179;-59
2022/03/10 03:31:46;;;;;;;25.83;14.67;;;;;;;-2.49;80.36;100981.84;5063175;28;20290;-57
2022/03/10 03:34:11;;;;;;;20.47;14.20;;;;;;;-2.40;80.50;100981.13;5074154;28;20636;-58
2022/03/10 03:36:46;;;;;;;28.17;14.33;;;;;;;-2.49;80.53;100977.63;5073998;28;20279;-57
2022/03/10 03:39:13;;;;;;;22.23;14.70;;;;;;;-2.49;80.73;100985.19;5072391;28;20648;-58
2022/03/10 03:41:39;;;;;;;18.97;14.63;;;;;;;-2.48;80.89;100973.44;5075969;28;20477;-57
2022/03/10 03:44:06;;;;;;;20.27;13.40;;;;;;;-2.51;80.87;100978.44;5072704;28;20506;-58
2022/03/10 03:46:32;;;;;;;18.60;13.93;;;;;;;-2.49;81.01;100980.16;5072652;28;20423;-57
2022/03/10 03:48:58;;;;;;;20.17;14.33;;;;;;;-2.42;80.67;100977.72;5071966;28;20544;-57
2022/03/10 03:51:23;;;;;;;25.47;14.63;;;;;;;-2.48;80.57;100971.78;5062945;28;20232;-57
2022/03/10 03:53:49;;;;;;;21.90;15.53;;;;;;;-2.56;80.54;100972.50;5074295;28;20520;-57
2022/03/10 03:56:14;;;;;;;21.07;14.23;;;;;;;-2.58;80.69;100976.66;5074764;28;20201;-58
2022/03/10 03:58:40;;;;;;;20.17;14.20;;;;;;;-2.60;80.70;100984.22;5071993;28;20203;-59
2022/03/10 04:01:05;;;;;;;22.33;14.80;;;;;;;-2.64;81.28;100975.75;5060914;28;20667;-57
2022/03/10 04:03:31;;;;;;;21.23;14.33;;;;;;;-2.56;81.24;100982.59;5081344;28;20173;-58
2022/03/10 04:05:56;;;;;;;22.90;14.40;;;;;;;-2.48;80.98;100981.84;5073935;28;20192;-57
2022/03/10 04:08:22;;;;;;;22.10;14.07;;;;;;;-2.48;80.49;100981.84;5073204;28;20245;-58
2022/03/10 04:10:47;;;;;;;20.17;14.17;;;;;;;-2.52;80.66;100980.09;5069118;28;20307;-57
2022/03/10 04:13:12;;;;;;;19.13;14.23;;;;;;;-2.55;80.52;100979.25;5075481;28;20530;-56
2022/03/10 04:15:38;;;;;;;21.67;13.67;;;;;;;-2.53;80.55;100975.06;5062950;28;20224;-57
2022/03/10 04:18:04;;;;;;;20.80;14.27;;;;;;;-2.58;80.74;100974.16;5071984;28;20172;-58
2022/03/10 04:20:29;;;;;;;21.10;13.80;;;;;;;-2.62;81.07;100975.78;5061416;28;20224;-58
2022/03/10 04:22:54;;;;;;;18.90;13.00;;;;;;;-2.58;81.06;100979.19;5072522;28;20601;-57
2022/03/10 04:25:20;;;;;;;22.13;14.23;;;;;;;-2.62;81.10;100976.63;5072469;28;20189;-58
2022/03/10 04:27:45;;;;;;;19.50;13.07;;;;;;;-2.63;81.13;100979.09;5072645;28;20180;-59
2022/03/10 04:30:13;;;;;;;19.37;13.37;;;;;;;-2.70;81.30;100977.34;5042050;28;20255;-57
2022/03/10 04:32:43;;;;;;;22.80;13.10;;;;;;;-2.65;81.70;100975.75;5053015;28;20173;-59
2022/03/10 04:35:10;;;;;;;21.07;13.40;;;;;;;-2.65;81.41;100976.56;5072539;28;20411;-57
2022/03/10 04:37:35;;;;;;;18.97;14.20;;;;;;;-2.67;81.18;100977.38;5067287;28;20950;-58
2022/03/10 04:40:00;;;;;;;21.80;13.53;;;;;;;-2.68;81.45;100974.03;5072070;28;20408;-58
2022/03/10 04:42:27;;;;;;;26.03;15.13;;;;;;;-2.77;81.67;100974.75;5077771;28;20607;-57
2022/03/10 04:44:53;;;;;;;18.10;13.17;;;;;;;-2.84;81.90;100978.00;5052118;28;20284;-57
2022/03/10 04:47:18;;;;;;;18.63;14.03;;;;;;;-2.86;82.19;100973.78;5052084;28;20430;-58
2022/03/10 04:49:44;;;;;;;17.93;13.03;;;;;;;-2.92;82.28;100979.53;5069654;28;20184;-57
2022/03/10 04:52:09;;;;;;;19.53;13.73;;;;;;;-2.89;81.96;100978.75;5067789;28;20219;-57
2022/03/10 04:54:34;;;;;;;20.50;13.67;;;;;;;-2.91;81.87;100978.72;5072711;28;20193;-57
2022/03/10 04:57:00;;;;;;;19.63;13.73;;;;;;;-2.96;81.89;100978.66;5072425;28;20675;-57
2022/03/10 04:59:26;;;;;;;18.10;13.40;;;;;;;-3.14;82.04;100975.84;5070536;28;20168;-57
2022/03/10 05:01:51;;;;;;;19.33;13.07;;;;;;;-3.03;82.32;100976.03;5076679;28;20481;-57
2022/03/10 05:04:16;;;;;;;21.37;14.33;;;;;;;-3.06;82.42;100979.34;5073910;28;20516;-57
2022/03/10 05:06:42;;;;;;;17.47;13.57;;;;;;;-3.06;82.38;100981.84;5072591;28;20579;-57
2022/03/10 05:09:07;;;;;;;20.03;13.73;;;;;;;-3.10;82.33;100978.44;5072260;28;20182;-58
2022/03/10 05:11:32;;;;;;;20.43;13.07;;;;;;;-3.05;82.21;100982.69;5061227;28;20228;-57
2022/03/10 05:13:57;;;;;;;19.47;12.07;;;;;;;-3.04;82.04;100989.44;5072064;28;20177;-58
2022/03/10 05:16:23;;;;;;;22.00;13.47;;;;;;;-3.10;82.19;100988.50;5066919;28;20173;-59
2022/03/10 05:18:48;;;;;;;22.13;14.07;;;;;;;-3.11;82.19;100991.84;5067375;28;20180;-58
2022/03/10 05:21:13;;;;;;;20.63;14.17;;;;;;;-3.04;82.21;100985.22;5067151;28;20257;-58
2022/03/10 05:23:39;;;;;;;19.03;13.33;;;;;;;-3.06;82.05;100981.84;5071513;28;20177;-58
2022/03/10 05:26:04;;;;;;;25.70;13.83;;;;;;;-3.06;82.02;100984.38;5070677;28;20173;-58
2022/03/10 05:28:30;;;;;;;22.63;13.97;;;;;;;-3.06;82.29;100989.41;5071835;28;20643;-58
2022/03/10 05:30:55;;;;;;;19.60;13.33;;;;;;;-3.09;82.08;100992.72;5068821;28;20274;-59
2022/03/10 05:33:20;;;;;;;19.67;13.87;;;;;;;-3.11;82.42;100991.00;5080755;28;20204;-58
2022/03/10 05:35:46;;;;;;;21.00;13.93;;;;;;;-2.97;82.45;101001.28;5071456;28;20175;-57
2022/03/10 05:38:11;;;;;;;19.03;13.67;;;;;;;-2.83;81.76;100992.28;5071143;28;20169;-58
2022/03/10 05:40:36;;;;;;;18.53;13.73;;;;;;;-2.80;81.27;100994.84;5061635;28;20239;-58
2022/03/10 05:43:02;;;;;;;19.93;13.73;;;;;;;-2.74;80.78;100998.28;5070895;28;20197;-58
2022/03/10 05:45:27;;;;;;;24.70;14.67;;;;;;;-2.75;80.71;100999.94;5070224;28;20177;-57
2022/03/10 05:47:55;;;;;;;25.10;13.67;;;;;;;-2.75;80.54;100992.41;5070750;28;20212;-57
2022/03/10 05:50:22;;;;;;;22.03;13.10;;;;;;;-2.73;80.82;100995.75;5064448;28;20189;-58
2022/03/10 05:52:47;;;;;;;19.07;13.23;;;;;;;-2.78;80.91;101005.78;5084712;28;20423;-58
2022/03/10 05:55:16;;;;;;;19.67;13.37;;;;;;;-2.93;81.80;101001.38;5071635;28;20919;-58
2022/03/10 05:57:44;;;;;;;18.93;13.00;;;;;;;-2.79;81.94;101001.56;5069631;28;20311;-58
2022/03/10 06:00:11;;;;;;;18.63;13.57;;;;;;;-2.75;81.86;101005.00;5060921;28;20422;-60
2022/03/10 06:02:37;;;;;;;21.07;14.27;;;;;;;-2.72;81.99;101015.09;5086056;28;20419;-58
2022/03/10 06:05:03;;;;;;;21.40;14.30;;;;;;;-2.72;82.26;101015.09;5070037;28;20981;-58
2022/03/10 06:07:29;;;;;;;19.43;13.23;;;;;;;-2.81;81.97;101018.31;5069604;28;20453;-57
2022/03/10 06:09:55;;;;;;;18.10;13.27;;;;;;;-2.78;82.12;101012.47;5071355;28;20724;-58
2022/03/10 06:12:21;;;;;;;20.53;12.87;;;;;;;-2.82;82.47;101011.59;5044180;28;20240;-58
2022/03/10 06:14:47;;;;;;;23.40;13.43;;;;;;;-2.86;82.80;101016.56;5069928;28;20403;-58
2022/03/10 06:17:12;;;;;;;22.20;13.30;;;;;;;-2.68;82.77;101014.34;5070967;28;20423;-58
2022/03/10 06:19:38;;;;;;;19.03;12.93;;;;;;;-2.58;82.64;101016.97;5071109;28;20264;-57
2022/03/10 06:22:03;;;;;;;18.77;13.33;;;;;;;-2.47;82.45;101023.00;5076884;28;20373;-59
2022/03/10 06:24:28;;;;;;;20.10;13.63;;;;;;;-2.40;81.66;101024.78;5052116;28;20188;-57
2022/03/10 06:26:53;;;;;;;20.40;14.03;;;;;;;-2.37;81.48;101024.84;5066607;28;20186;-59
2022/03/10 06:29:19;;;;;;;24.63;13.70;;;;;;;-2.28;81.29;101026.63;5069755;28;20660;-60
2022/03/10 06:31:44;;;;;;;18.40;13.20;;;;;;;-2.18;81.08;101027.59;5057208;28;20232;-57
2022/03/10 06:34:10;;;;;;;16.83;12.60;;;;;;;-2.08;80.53;101031.94;5052272;28;20196;-59
2022/03/10 06:36:35;;;;;;;19.53;13.40;;;;;;;-1.91;80.13;101042.22;5055398;28;20267;-60
2022/03/10 06:39:01;;;;;;;17.77;12.90;;;;;;;-1.65;79.24;101031.56;5070555;28;20223;-59
2022/03/10 06:41:26;;;;;;;20.40;14.03;;;;;;;-1.55;78.19;101040.94;5061418;28;20263;-59
2022/03/10 06:43:52;;;;;;;17.53;12.87;;;;;;;-0.91;77.69;101044.06;5070533;28;20252;-57
2022/03/10 06:46:17;;;;;;;22.77;12.80;;;;;;;-0.07;74.38;101051.31;5064381;28;20209;-58
2022/03/10 06:48:42;;;;;;;18.00;12.53;;;;;;;1.54;68.93;101049.00;5064942;28;20638;-57
2022/03/10 06:51:08;;;;;;;16.20;12.33;;;;;;;3.43;59.08;101039.47;5052513;28;20216;-59
2022/03/10 06:53:33;;;;;;;16.43;12.27;;;;;;;5.07;51.13;101032.22;5054497;28;20239;-59
2022/03/10 06:55:59;;;;;;;21.87;12.73;;;;;;;6.48;47.27;101032.91;5054304;28;20263;-59
2022/03/10 06:58:24;;;;;;;16.07;12.17;;;;;;;7.96;43.39;101037.69;5057301;28;20221;-59
2022/03/10 07:00:49;;;;;;;17.23;12.37;;;;;;;9.39;39.71;101029.84;5049861;28;20231;-59
2022/03/10 07:03:15;;;;;;;13.33;11.93;;;;;;;10.74;36.73;101028.28;5063365;28;20565;-59
2022/03/10 07:05:40;;;;;;;16.30;13.30;;;;;;;11.81;34.53;101028.91;5054176;28;20212;-60
2022/03/10 07:08:05;;;;;;;18.43;13.37;;;;;;;12.18;32.98;101037.56;5053344;28;20547;-61
2022/03/10 07:10:31;;;;;;;17.47;12.63;;;;;;;12.82;31.99;101032.81;5049983;28;20699;-59
2022/03/10 07:12:56;;;;;;;15.67;13.03;;;;;;;13.38;31.07;101038.69;5065488;28;20188;-58
2022/03/10 07:15:22;;;;;;;24.03;14.67;;;;;;;13.77;30.45;101033.25;5058816;28;20272;-59
2022/03/10 07:17:48;;;;;;;19.83;14.50;;;;;;;13.99;29.41;101045.84;5069846;28;20505;-59
2022/03/10 07:20:18;;;;;;;17.73;15.43;;;;;;;13.42;29.75;101048.84;5064699;28;20169;-58
2022/03/10 07:22:45;;;;;;;21.87;15.90;;;;;;;12.18;32.25;101054.78;5077455;28;20189;-58
2022/03/10 07:25:11;;;;;;;20.63;15.43;;;;;;;10.87;33.50;101056.91;5059518;28;20193;-59
2022/03/10 07:27:36;;;;;;;16.83;14.97;;;;;;;10.00;35.78;101056.78;5052758;28;20185;-60
2022/03/10 07:30:03;;;;;;;19.60;15.60;;;;;;;11.42;34.12;101052.94;5051516;28;20261;-60
2022/03/10 07:32:29;;;;;;;17.37;15.53;;;;;;;12.15;32.92;101053.19;5049312;28;20220;-59
2022/03/10 07:34:55;;;;;;;25.70;15.57;;;;;;;13.91;30.18;101046.28;5053992;28;20189;-59
2022/03/10 07:37:20;;;;;;;16.40;14.80;;;;;;;14.84;28.49;101042.03;5065912;28;20414;-58
2022/03/10 07:39:45;;;;;;;17.63;14.40;;;;;;;15.21;27.96;101044.25;5054024;28;20212;-64
2022/03/10 07:42:11;;;;;;;18.43;15.53;;;;;;;15.75;27.39;101045.38;5057753;28;20227;-59
2022/03/10 07:44:36;;;;;;;18.87;15.00;;;;;;;14.37;29.42;101048.13;5072876;28;20176;-59
2022/03/10 07:47:02;;;;;;;17.97;15.77;;;;;;;14.76;28.50;101056.34;5054745;28;20187;-59
2022/03/10 07:49:29;;;;;;;19.40;15.90;;;;;;;14.53;28.04;101056.69;5053344;28;20263;-59
2022/03/10 07:51:54;;;;;;;16.60;14.37;;;;;;;13.45;29.79;101054.69;5064783;28;20272;-59
2022/03/10 07:54:19;;;;;;;19.33;13.57;;;;;;;12.53;30.57;101053.13;5074751;28;20197;-59
2022/03/10 07:56:44;;;;;;;21.33;13.93;;;;;;;12.62;31.20;101046.69;5073422;28;20675;-58
2022/03/10 07:59:10;;;;;;;18.07;13.73;;;;;;;11.99;31.78;101050.47;5071579;28;20196;-59
2022/03/10 08:01:35;;;;;;;17.77;14.10;;;;;;;10.06;34.66;101051.44;5049368;28;20715;-59
2022/03/10 08:04:00;;;;;;;19.57;13.37;;;;;;;9.13;35.66;101052.09;5057118;28;20197;-59
2022/03/10 08:06:27;;;;;;;17.30;14.07;;;;;;;7.73;38.18;101052.81;5053709;28;20485;-59
2022/03/10 08:08:53;;;;;;;18.60;13.33;;;;;;;7.23;39.79;101052.44;5052501;28;20686;-59
2022/03/10 08:11:18;;;;;;;19.57;14.20;;;;;;;7.29;40.23;101057.41;5052091;28;20228;-60
2022/03/10 08:13:44;;;;;;;17.03;13.80;;;;;;;7.00;40.98;101048.75;5058893;28;20173;-59
2022/03/10 08:16:10;;;;;;;16.80;13.27;;;;;;;6.63;41.76;101054.72;5054859;28;20794;-58
2022/03/10 08:18:36;;;;;;;17.23;13.47;;;;;;;6.61;42.47;101049.66;5060665;28;20188;-60
2022/03/10 08:21:01;;;;;;;19.33;13.47;;;;;;;6.00;44.17;101056.06;5050552;28;20232;-60
2022/03/10 08:23:27;;;;;;;25.37;14.20;;;;;;;5.82;44.59;101042.78;5051543;28;20508;-59
2022/03/10 08:25:52;;;;;;;25.40;13.73;;;;;;;6.09;44.79;101051.63;5052548;28;20416;-60
2022/03/10 08:28:18;;;;;;;16.53;13.37;;;;;;;6.52;43.47;101046.47;5052240;28;20173;-59
2022/03/10 08:30:44;;;;;;;30.13;14.03;;;;;;;6.54;43.50;101043.00;5023812;28;20266;-58
2022/03/10 08:33:09;;;;;;;17.63;11.83;;;;;;;6.03;44.57;101049.19;5051044;28;20185;-59
2022/03/10 08:35:35;;;;;;;16.90;12.17;;;;;;;5.63;46.00;101048.22;5052593;28;20219;-59
2022/03/10 08:38:00;;;;;;;16.30;13.00;;;;;;;5.48;46.51;101043.38;5052157;28;20194;-58
2022/03/10 08:40:26;;;;;;;23.43;13.30;;;;;;;5.52;46.29;101039.06;5064390;28;20632;-61
2022/03/10 08:42:51;;;;;;;18.77;12.67;;;;;;;5.42;46.57;101035.84;5076517;28;20196;-59
2022/03/10 08:45:17;;;;;;;18.60;12.37;;;;;;;5.52;46.90;101031.41;5070875;28;20185;-59
2022/03/10 08:47:43;;;;;;;19.17;13.20;;;;;;;5.48;46.96;101040.84;5070656;28;20642;-59
2022/03/10 08:50:11;;;;;;;16.53;12.60;;;;;;;5.54;46.87;101043.28;5061577;28;20201;-60
2022/03/10 08:52:36;;;;;;;19.30;13.30;;;;;;;5.78;47.08;101043.69;5086765;28;20693;-60
2022/03/10 08:55:03;;;;;;;18.37;13.07;;;;;;;5.90;45.94;101037.50;5070925;28;20169;-59
2022/03/10 08:57:29;;;;;;;15.70;12.23;;;;;;;6.11;45.88;101037.06;5071426;28;20228;-57
2022/03/10 08:59:54;;;;;;;14.43;11.23;;;;;;;6.12;44.07;101028.56;5072330;28;20177;-60
2022/03/10 09:02:19;;;;;;;28.53;12.03;;;;;;;6.10;44.59;101030.31;5077364;28;20334;-60
2022/03/10 09:04:45;;;;;;;18.87;13.23;;;;;;;6.11;44.30;101020.94;5071259;28;20425;-59
2022/03/10 09:07:10;;;;;;;15.73;12.30;;;;;;;6.25;43.84;101025.72;5071913;28;20426;-61
2022/03/10 09:09:35;;;;;;;19.57;11.90;;;;;;;6.48;43.99;101014.19;5071595;28;20189;-59
2022/03/10 09:12:01;;;;;;;20.70;11.63;;;;;;;7.00;42.31;101023.16;5063236;28;20221;-61
2022/03/10 09:14:26;;;;;;;16.70;12.40;;;;;;;7.58;41.52;101015.69;5072130;28;20176;-59
2022/03/10 09:16:52;;;;;;;15.63;12.50;;;;;;;8.30;39.68;101016.19;5070149;28;20406;-63
2022/03/10 09:19:17;;;;;;;19.70;12.00;;;;;;;8.90;38.34;101009.22;5071345;28;20169;-60
2022/03/10 09:21:43;;;;;;;13.57;12.13;;;;;;;10.59;35.49;101003.13;5074707;28;20223;-59
2022/03/10 09:24:09;;;;;;;17.53;12.17;;;;;;;11.80;33.11;101014.34;5074249;28;20534;-60
2022/03/10 09:26:35;;;;;;;16.87;12.13;;;;;;;12.19;32.59;101007.44;5071892;28;20540;-59
2022/03/10 09:29:00;;;;;;;17.03;13.10;;;;;;;14.60;28.94;100999.38;5069001;28;20181;-59
2022/03/10 09:31:25;;;;;;;16.13;12.87;;;;;;;14.00;29.12;100990.63;5044868;28;20229;-60
2022/03/10 09:33:51;;;;;;;17.07;12.73;;;;;;;13.55;29.85;100987.84;5056502;28;20177;-59
2022/03/10 09:36:16;;;;;;;17.70;12.33;;;;;;;14.66;28.06;100999.91;5054664;28;20662;-59
2022/03/10 09:38:43;;;;;;;12.73;11.37;;;;;;;13.37;29.56;101003.41;5069685;28;20181;-59
2022/03/10 09:41:09;;;;;;;14.43;12.57;;;;;;;13.28;30.22;100997.84;5069139;28;20679;-58
2022/03/10 09:43:35;;;;;;;14.70;13.17;;;;;;;14.34;28.68;100994.78;5042441;28;20285;-59
2022/03/10 09:46:01;;;;;;;14.17;12.67;;;;;;;14.67;28.00;101000.72;5066559;28;20185;-59
2022/03/10 09:48:26;;;;;;;16.83;12.97;;;;;;;14.20;28.55;100995.56;5069746;28;20259;-59
2022/03/10 09:50:52;;;;;;;19.83;12.43;;;;;;;16.78;25.54;100992.13;5062461;28;20681;-60
2022/03/10 09:53:19;;;;;;;15.43;13.43;;;;;;;19.12;22.51;100987.81;5080060;28;20484;-61
2022/03/10 09:55:44;;;;;;;12.80;11.43;;;;;;;19.03;22.48;100991.94;5053408;28;20235;-60
2022/03/10 09:58:10;;;;;;;19.13;12.80;;;;;;;17.66;23.56;100984.47;5061917;28;20225;-60
2022/03/10 10:00:35;;;;;;;13.83;12.33;;;;;;;17.30;24.03;100986.94;5063032;28;20270;-60
2022/03/10 10:03:01;;;;;;;13.60;12.27;;;;;;;17.04;24.60;100999.13;5075297;28;20304;-60
2022/03/10 10:05:27;;;;;;;16.00;13.83;;;;;;;16.91;24.47;100986.09;5054311;28;20173;-59
2022/03/10 10:08:01;;;;;;;15.67;14.07;;;;;;;17.14;24.68;100978.53;5048827;28;20560;-59
2022/03/10 10:10:27;;;;;;;14.77;12.20;;;;;;;17.88;24.49;100981.19;5059645;28;20245;-60
2022/03/10 10:12:53;;;;;;;15.23;12.27;;;;;;;18.70;22.44;100983.94;5069970;28;20530;-59
2022/03/10 10:15:18;;;;;;;18.33;12.93;;;;;;;17.81;23.47;100977.34;5071115;28;20169;-59
2022/03/10 10:17:43;;;;;;;14.13;12.63;;;;;;;17.89;23.47;100973.28;5070828;28;20200;-59
2022/03/10 10:20:09;;;;;;;16.37;13.23;;;;;;;18.32;23.23;100978.94;5061818;28;20593;-59
2022/03/10 10:22:35;;;;;;;17.80;13.40;;;;;;;17.51;23.80;100974.19;5069803;28;20185;-59
2022/03/10 10:25:02;;;;;;;14.53;13.20;;;;;;;18.96;22.49;100972.50;5054779;28;20189;-59
2022/03/10 10:27:33;;;;;;;15.93;13.20;;;;;;;17.78;23.21;100972.38;5052911;28;20230;-59
2022/03/10 10:30:01;;;;;;;15.90;12.47;;;;;;;17.26;23.81;100973.31;5055024;28;20184;-59
2022/03/10 10:32:29;;;;;;;15.67;12.57;;;;;;;17.46;23.89;100965.91;5059855;28;20232;-60
2022/03/10 10:34:59;;;;;;;15.35;12.13;;;;;;;17.37;23.54;100967.38;5062677;28;20327;-60
2022/03/10 10:37:24;;;;;;;14.03;12.40;;;;;;;15.66;25.95;100971.56;5072248;28;20177;-61
2022/03/10 10:39:51;;;;;;;12.57;11.37;;;;;;;14.08;27.98;100975.53;5074814;28;20195;-60
2022/03/10 10:42:16;;;;;;;17.57;12.97;;;;;;;12.16;31.13;100974.91;5065152;28;20227;-61
2022/03/10 10:44:42;;;;;;;14.47;12.80;;;;;;;11.91;32.09;100967.47;5074994;28;20603;-61
2022/03/10 10:47:07;;;;;;;14.10;12.70;;;;;;;11.24;33.27;100967.00;5074937;28;20255;-61
2022/03/10 10:49:35;;;;;;;19.20;13.10;;;;;;;11.20;33.51;100966.28;5073962;28;20651;-60
2022/03/10 10:52:01;;;;;;;19.03;14.83;;;;;;;11.04;33.92;100965.25;5063354;28;20244;-61
2022/03/10 10:54:28;;;;;;;15.17;11.97;;;;;;;10.97;33.71;100954.41;5073392;28;20238;-60
2022/03/10 10:56:59;;;;;;;18.37;13.23;;;;;;;10.97;33.46;100956.97;5073545;28;20221;-59
2022/03/10 10:59:38;;;;;;;16.00;12.80;;;;;;;10.91;33.58;100952.91;5052919;28;20627;-60
2022/03/10 11:02:22;;;;;;;14.05;12.55;;;;;;;11.22;34.08;100968.78;5045921;28;20470;-63
2022/03/10 11:04:52;;;;;;;15.03;12.27;;;;;;;10.96;33.78;100953.56;5053414;28;20207;-60
2022/03/10 11:07:20;;;;;;;14.13;12.17;;;;;;;11.06;34.33;100948.03;5052850;28;20182;-62
2022/03/10 11:09:47;;;;;;;14.60;11.30;;;;;;;11.18;33.39;100944.09;5053172;28;20189;-59